Time;durP1;ratioP1;P1;durP2;ratioP2;P2;SDS_P1;SDS_P2;PMS_P1;PMS_P2;Temp;Humidity;BMP_temperature;BMP_pressure;BME280_temperature;BME280_humidity;BME280_pressure;Samples;Min_cycle;Max_cycle;Signal;HPM_P1;HPM_P2
2023/12/29 00:00:41;;;;;;;19.00;11.60;;;;;21.60;99826.00;;;;2052374;28;20211;-51
2023/12/29 00:01:41;;;;;;;16.80;11.77;;;;;21.60;99818.00;;;;2044478;28;20203;-51
2023/12/29 00:02:42;;;;;;;17.30;11.53;;;;;21.60;99827.00;;;;2060151;28;20233;-52
2023/12/29 00:03:42;;;;;;;14.97;10.90;;;;;21.60;99833.00;;;;2056778;28;20211;-51
2023/12/29 00:04:42;;;;;;;13.37;10.53;;;;;21.60;99820.00;;;;2058371;28;20221;-51
2023/12/29 00:05:43;;;;;;;13.37;10.13;;;;;21.60;99809.00;;;;2060791;28;20261;-51
2023/12/29 00:06:43;;;;;;;12.80;10.23;;;;;21.60;99830.00;;;;2055995;28;20221;-51
2023/12/29 00:07:44;;;;;;;14.73;10.80;;;;;21.60;99835.00;;;;2068103;28;20214;-51
2023/12/29 00:08:44;;;;;;;14.37;10.50;;;;;21.50;99821.00;;;;2060477;28;20253;-51
2023/12/29 00:09:44;;;;;;;13.70;10.27;;;;;21.50;99824.00;;;;2059749;28;20226;-51
2023/12/29 00:10:45;;;;;;;16.87;10.00;;;;;21.50;99824.00;;;;2066521;28;20273;-51
2023/12/29 00:11:49;;;;;;;12.00;9.40;;;;;21.50;99828.00;;;;2054352;28;20245;-51
2023/12/29 00:12:49;;;;;;;12.80;9.35;;;;;21.50;99813.00;;;;2075404;28;20213;-51
2023/12/29 00:13:49;;;;;;;13.57;9.40;;;;;21.50;99819.00;;;;2064026;28;20211;-51
2023/12/29 00:14:50;;;;;;;12.60;9.40;;;;;21.50;99805.00;;;;2067476;28;20218;-51
2023/12/29 00:15:54;;;;;;;14.33;9.10;;;;;21.50;99829.00;;;;2069430;28;20302;-51
2023/12/29 00:16:57;;;;;;;13.38;9.98;;;;;21.50;99802.00;;;;2053161;28;20715;-52
2023/12/29 00:17:57;;;;;;;14.40;9.23;;;;;21.50;99818.00;;;;2042570;28;20258;-52
2023/12/29 00:18:57;;;;;;;13.00;9.10;;;;;21.50;99804.00;;;;2066894;23;20231;-50
2023/12/29 00:19:58;;;;;;;12.97;9.00;;;;;21.50;99829.00;;;;2082593;28;20236;-52
2023/12/29 00:20:58;;;;;;;13.80;9.37;;;;;21.40;99820.00;;;;2090321;28;20213;-50
2023/12/29 00:21:59;;;;;;;11.37;8.40;;;;;21.50;99802.00;;;;2083601;28;20290;-51
2023/12/29 00:23:00;;;;;;;10.77;8.13;;;;;21.50;99800.00;;;;2085447;28;20216;-51
2023/12/29 00:24:00;;;;;;;14.27;8.27;;;;;21.50;99813.00;;;;2092901;28;20231;-49
2023/12/29 00:25:00;;;;;;;9.93;7.53;;;;;21.50;99806.00;;;;2093531;28;20734;-50
2023/12/29 00:26:01;;;;;;;8.90;7.00;;;;;21.50;99796.00;;;;2092681;28;20748;-52
2023/12/29 00:27:01;;;;;;;10.10;7.20;;;;;21.50;99808.00;;;;2080721;28;20224;-49
2023/12/29 00:28:02;;;;;;;8.37;6.33;;;;;21.40;99804.00;;;;2092955;28;20315;-51
2023/12/29 00:29:03;;;;;;;9.90;7.80;;;;;21.40;99802.00;;;;2094556;28;20747;-49
2023/12/29 00:30:03;;;;;;;12.30;7.60;;;;;21.40;99800.00;;;;2086398;28;20239;-52
2023/12/29 00:31:05;;;;;;;10.07;6.80;;;;;21.40;99826.00;;;;2084751;28;20212;-52
2023/12/29 00:32:05;;;;;;;10.55;7.30;;;;;21.40;99804.00;;;;2076338;28;20228;-52
2023/12/29 00:33:06;;;;;;;10.40;7.40;;;;;21.40;99812.00;;;;2079123;28;20210;-52
2023/12/29 00:34:06;;;;;;;10.53;7.70;;;;;21.40;99805.00;;;;2085156;28;20267;-49
2023/12/29 00:35:07;;;;;;;10.90;7.13;;;;;21.40;99800.00;;;;2085771;28;20244;-50
2023/12/29 00:36:07;;;;;;;11.23;7.60;;;;;21.40;99800.00;;;;2079524;28;20213;-50
2023/12/29 00:37:08;;;;;;;9.63;6.53;;;;;21.40;99801.00;;;;2081226;28;20303;-52
2023/12/29 00:38:08;;;;;;;11.80;8.17;;;;;21.40;99804.00;;;;2083696;28;20236;-50
2023/12/29 00:39:09;;;;;;;10.57;6.63;;;;;21.40;99806.00;;;;2086235;28;20509;-51
2023/12/29 00:40:09;;;;;;;10.60;6.73;;;;;21.40;99808.00;;;;2079310;28;20222;-49
2023/12/29 00:41:10;;;;;;;10.57;7.00;;;;;21.40;99805.00;;;;2086843;28;20224;-51
2023/12/29 00:42:10;;;;;;;9.37;6.17;;;;;21.40;99853.00;;;;2074341;28;20231;-51
2023/12/29 00:43:10;;;;;;;10.90;6.77;;;;;21.40;99805.00;;;;2085205;28;21006;-53
2023/12/29 00:44:11;;;;;;;10.67;6.07;;;;;21.40;99797.00;;;;2086274;28;20233;-52
2023/12/29 00:45:11;;;;;;;10.60;6.90;;;;;21.40;99800.00;;;;2085105;28;20224;-51
2023/12/29 00:46:14;;;;;;;8.90;5.50;;;;;21.40;99796.00;;;;2086722;28;20688;-50
2023/12/29 00:47:14;;;;;;;10.88;6.82;;;;;21.40;99828.00;;;;2076078;28;20221;-51
2023/12/29 00:48:14;;;;;;;8.63;5.77;;;;;21.40;99790.00;;;;2092057;28;20768;-49
2023/12/29 00:49:15;;;;;;;8.27;5.50;;;;;21.40;99791.00;;;;2085769;28;20702;-50
2023/12/29 00:50:15;;;;;;;8.43;6.00;;;;;21.40;99782.00;;;;2085271;28;20847;-51
2023/12/29 00:51:15;;;;;;;7.73;5.30;;;;;21.40;99798.00;;;;2085953;28;20790;-51
2023/12/29 00:52:16;;;;;;;8.83;5.13;;;;;21.40;99787.00;;;;2074421;28;20212;-52
2023/12/29 00:53:16;;;;;;;7.40;5.47;;;;;21.40;99802.00;;;;2086194;28;20213;-49
2023/12/29 00:54:16;;;;;;;7.00;4.83;;;;;21.40;99793.00;;;;2084325;28;20272;-52
2023/12/29 00:55:16;;;;;;;7.17;5.00;;;;;21.40;99809.00;;;;2085047;28;20217;-52
2023/12/29 00:56:17;;;;;;;7.67;4.97;;;;;21.40;99794.00;;;;2085275;28;20217;-52
2023/12/29 00:57:17;;;;;;;8.20;5.80;;;;;21.30;99799.00;;;;2083758;28;20374;-51
2023/12/29 00:58:17;;;;;;;8.37;5.60;;;;;21.30;99785.00;;;;2099812;28;20203;-51
2023/12/29 00:59:18;;;;;;;6.90;5.50;;;;;21.30;99792.00;;;;2085833;28;20212;-52
2023/12/29 01:00:19;;;;;;;8.73;5.07;;;;;21.30;99796.00;;;;2083720;28;20260;-52
2023/12/29 01:01:19;;;;;;;8.10;5.67;;;;;21.30;99791.00;;;;2083359;28;20223;-51
2023/12/29 01:02:19;;;;;;;9.30;4.53;;;;;21.30;99791.00;;;;2081587;28;20691;-52
2023/12/29 01:03:20;;;;;;;7.80;4.83;;;;;21.30;99784.00;;;;2092026;28;20226;-52
2023/12/29 01:04:20;;;;;;;8.20;5.10;;;;;21.30;99775.00;;;;2093192;28;20240;-49
2023/12/29 01:05:21;;;;;;;6.90;4.27;;;;;21.20;99780.00;;;;2083974;28;20238;-50
2023/12/29 01:06:22;;;;;;;5.57;4.13;;;;;21.30;99776.00;;;;2086552;28;20205;-52
2023/12/29 01:07:23;;;;;;;7.55;4.90;;;;;21.30;99781.00;;;;2062750;28;20252;-51
2023/12/29 01:08:23;;;;;;;5.63;4.17;;;;;21.30;99778.00;;;;2075319;28;20677;-52
2023/12/29 01:09:23;;;;;;;7.27;4.60;;;;;21.30;99791.00;;;;2085932;28;20701;-52
2023/12/29 01:10:24;;;;;;;7.17;4.43;;;;;21.30;99645.00;;;;2085411;28;20754;-51
2023/12/29 01:11:24;;;;;;;7.80;4.93;;;;;21.30;99770.00;;;;2087197;28;21222;-51
2023/12/29 01:12:25;;;;;;;6.57;4.57;;;;;21.30;99775.00;;;;2072419;28;20616;-52
2023/12/29 01:13:25;;;;;;;7.00;4.67;;;;;21.30;99773.00;;;;2086570;28;20568;-52
2023/12/29 01:14:25;;;;;;;6.60;4.23;;;;;21.30;99774.00;;;;2082200;28;20209;-51
2023/12/29 01:15:26;;;;;;;7.20;4.30;;;;;21.30;99782.00;;;;2084904;28;20293;-51
2023/12/29 01:16:27;;;;;;;6.43;4.10;;;;;21.30;99772.00;;;;2083758;28;20224;-51
2023/12/29 01:17:28;;;;;;;6.87;4.07;;;;;21.30;99779.00;;;;2079166;28;20707;-53
2023/12/29 01:18:28;;;;;;;7.40;5.05;;;;;21.30;99776.00;;;;2094135;28;20475;-50
2023/12/29 01:19:28;;;;;;;10.00;4.20;;;;;21.30;99771.00;;;;2085097;28;20292;-51
2023/12/29 01:20:29;;;;;;;6.63;3.87;;;;;21.30;99776.00;;;;2085019;28;20224;-50
2023/12/29 01:21:33;;;;;;;6.40;4.20;;;;;21.30;99768.00;;;;2081432;28;20583;-52
2023/12/29 01:22:33;;;;;;;6.22;4.13;;;;;21.30;99774.00;;;;2086155;28;20209;-53
2023/12/29 01:23:34;;;;;;;5.67;3.67;;;;;21.20;99776.00;;;;2088220;28;20227;-51
2023/12/29 01:24:34;;;;;;;6.43;4.13;;;;;21.20;99771.00;;;;2086135;28;20251;-51
2023/12/29 01:25:34;;;;;;;10.60;3.57;;;;;21.20;99785.00;;;;2086546;28;20209;-53
2023/12/29 01:26:38;;;;;;;5.80;4.00;;;;;21.20;99759.00;;;;2075553;28;20209;-52
2023/12/29 01:27:38;;;;;;;10.98;4.40;;;;;21.20;99774.00;;;;2088906;28;20212;-51
2023/12/29 01:28:38;;;;;;;5.83;3.67;;;;;21.20;99759.00;;;;2083423;28;20256;-51
2023/12/29 01:29:39;;;;;;;7.27;3.80;;;;;21.20;99766.00;;;;2083152;28;20393;-50
2023/12/29 01:30:39;;;;;;;6.20;3.50;;;;;21.20;99759.00;;;;2082482;28;20692;-51
2023/12/29 01:31:39;;;;;;;5.77;3.70;;;;;21.20;99759.00;;;;2076246;28;20719;-50
2023/12/29 01:32:40;;;;;;;5.77;3.50;;;;;21.20;99748.00;;;;2085414;28;20213;-53
2023/12/29 01:33:40;;;;;;;11.23;3.40;;;;;21.20;99757.00;;;;2084082;28;20266;-53
2023/12/29 01:34:40;;;;;;;5.17;3.37;;;;;21.20;99747.00;;;;2086458;28;20243;-51
2023/12/29 01:35:41;;;;;;;5.43;3.33;;;;;21.20;99750.00;;;;2084965;28;20216;-52
2023/12/29 01:36:41;;;;;;;5.20;2.70;;;;;21.20;99755.00;;;;2076070;28;20608;-52
2023/12/29 01:37:42;;;;;;;6.17;3.53;;;;;21.20;99747.00;;;;2091087;28;20952;-51
2023/12/29 01:38:42;;;;;;;4.90;3.30;;;;;21.20;99748.00;;;;2083391;28;20220;-53
2023/12/29 01:39:42;;;;;;;6.17;3.30;;;;;21.20;99762.00;;;;2085799;28;20220;-52
2023/12/29 01:40:44;;;;;;;4.80;3.00;;;;;21.20;99752.00;;;;2084343;28;20220;-51
2023/12/29 01:41:44;;;;;;;3.47;2.47;;;;;21.20;99756.00;;;;2076686;28;20247;-52
2023/12/29 01:42:45;;;;;;;6.77;3.90;;;;;21.10;99746.00;;;;2088319;28;20217;-51
2023/12/29 01:43:57;;;;;;;5.73;3.50;;;;;21.20;99755.00;;;;2086280;28;20209;-51
2023/12/29 01:44:57;;;;;;;5.13;3.65;;;;;21.20;99754.00;;;;2090985;28;20212;-50
2023/12/29 01:45:58;;;;;;;5.20;3.10;;;;;21.20;99748.00;;;;2084118;28;20231;-51
2023/12/29 01:47:01;;;;;;;7.50;3.70;;;;;21.20;99751.00;;;;2075648;28;20216;-50
2023/12/29 01:48:02;;;;;;;4.18;2.92;;;;;21.20;99758.00;;;;2075237;28;20409;-52
2023/12/29 01:49:02;;;;;;;4.33;3.07;;;;;21.20;99748.00;;;;2077023;28;20233;-50
2023/12/29 01:50:03;;;;;;;6.27;3.30;;;;;21.10;99796.00;;;;2081468;28;20217;-51
2023/12/29 01:51:04;;;;;;;4.00;2.70;;;;;21.10;99756.00;;;;2084547;28;20229;-53
2023/12/29 01:52:04;;;;;;;5.17;3.17;;;;;21.10;99752.00;;;;2074302;28;20849;-50
2023/12/29 01:53:05;;;;;;;6.20;2.80;;;;;21.10;99747.00;;;;2092940;28;20220;-50
2023/12/29 01:54:05;;;;;;;4.50;2.93;;;;;21.10;99753.00;;;;2093781;28;20217;-53
2023/12/29 01:55:05;;;;;;;5.33;2.53;;;;;21.10;99744.00;;;;2085109;28;20224;-53
2023/12/29 01:56:06;;;;;;;5.63;2.67;;;;;21.10;99709.00;;;;2085400;28;20241;-50
2023/12/29 01:57:08;;;;;;;6.80;3.40;;;;;21.10;99750.00;;;;2066741;28;20213;-49
2023/12/29 01:58:08;;;;;;;7.57;3.13;;;;;21.10;99744.00;;;;2085433;28;20212;-50
2023/12/29 01:59:08;;;;;;;4.70;2.53;;;;;21.10;99730.00;;;;2084034;28;20221;-50
2023/12/29 02:00:11;;;;;;;4.40;3.07;;;;;21.10;99733.00;;;;2084071;28;20300;-50
2023/12/29 02:01:11;;;;;;;3.83;2.55;;;;;21.10;99741.00;;;;2085549;28;20248;-50
2023/12/29 02:02:11;;;;;;;4.20;2.40;;;;;21.10;99739.00;;;;2066306;28;20214;-52
2023/12/29 02:03:12;;;;;;;3.83;2.30;;;;;21.10;99745.00;;;;2085457;28;20251;-51
2023/12/29 02:04:12;;;;;;;5.63;2.20;;;;;21.10;99732.00;;;;2084790;28;20240;-50
2023/12/29 02:05:13;;;;;;;4.87;2.83;;;;;21.10;99735.00;;;;2085846;28;20217;-50
2023/12/29 02:06:14;;;;;;;4.17;2.10;;;;;21.10;99724.00;;;;2085115;28;20428;-53
2023/12/29 02:07:14;;;;;;;6.03;2.50;;;;;21.10;99740.00;;;;2067132;28;20456;-50
2023/12/29 02:08:14;;;;;;;4.90;2.50;;;;;21.10;99735.00;;;;2077146;28;20238;-53
2023/12/29 02:09:16;;;;;;;5.17;2.33;;;;;21.10;99734.00;;;;2070631;28;20214;-51
2023/12/29 02:10:17;;;;;;;4.35;2.10;;;;;21.10;99740.00;;;;2084154;28;20239;-50
2023/12/29 02:11:18;;;;;;;4.00;1.90;;;;;21.10;99757.00;;;;2082383;28;20296;-53
2023/12/29 02:12:18;;;;;;;5.13;2.10;;;;;21.10;99735.00;;;;2073114;28;20680;-52
2023/12/29 02:13:22;;;;;;;3.70;1.90;;;;;21.10;99742.00;;;;2084779;28;20201;-51
2023/12/29 02:14:22;;;;;;;5.78;2.10;;;;;21.10;99731.00;;;;2084965;28;20355;-51
2023/12/29 02:15:23;;;;;;;4.93;2.70;;;;;21.10;99766.00;;;;2083549;28;20213;-51
2023/12/29 02:16:50;;;;;;;3.83;2.50;;;;;21.10;99757.00;;;;2080193;28;20211;-51
2023/12/29 02:18:02;;;;;;;4.05;2.47;;;;;21.00;99743.00;;;;2076558;28;20588;-51
2023/12/29 02:19:04;;;;;;;3.78;2.13;;;;;21.00;99716.00;;;;2091453;28;20224;-51
2023/12/29 02:20:05;;;;;;;4.05;2.10;;;;;21.00;99751.00;;;;2083590;28;20225;-51
2023/12/29 02:21:05;;;;;;;3.30;2.10;;;;;21.00;99755.00;;;;2082817;28;20263;-51
2023/12/29 02:22:05;;;;;;;5.10;2.50;;;;;21.00;99758.00;;;;2076295;28;20217;-51
2023/12/29 02:23:06;;;;;;;3.57;2.30;;;;;21.00;99749.00;;;;2080392;28;20229;-51
2023/12/29 02:24:06;;;;;;;4.00;2.33;;;;;21.00;99755.00;;;;2084781;28;20765;-55
2023/12/29 02:25:06;;;;;;;4.47;1.80;;;;;21.00;99755.00;;;;2085145;28;20274;-53
2023/12/29 02:26:10;;;;;;;4.80;2.10;;;;;21.00;99757.00;;;;2085640;28;20375;-52
2023/12/29 02:27:34;;;;;;;4.65;2.20;;;;;21.00;99749.00;;;;2074332;28;20236;-52
2023/12/29 02:28:34;;;;;;;3.90;2.05;;;;;21.00;99752.00;;;;2082193;28;20221;-51
2023/12/29 02:29:35;;;;;;;4.10;2.27;;;;;21.00;99751.00;;;;2083815;28;20566;-51
2023/12/29 02:30:45;;;;;;;4.77;2.33;;;;;21.00;99750.00;;;;2084086;28;20600;-51
2023/12/29 02:31:45;;;;;;;6.57;2.45;;;;;21.00;99755.00;;;;2067638;28;20220;-50
2023/12/29 02:32:46;;;;;;;4.83;2.30;;;;;21.00;99754.00;;;;2079517;28;20701;-51
2023/12/29 02:33:46;;;;;;;4.23;2.30;;;;;21.00;99746.00;;;;2085182;28;20573;-51
2023/12/29 02:34:47;;;;;;;4.50;1.80;;;;;20.50;99748.00;;;;2080404;28;20221;-50
2023/12/29 02:35:49;;;;;;;5.50;1.97;;;;;21.00;99747.00;;;;2083139;28;20209;-51
2023/12/29 02:36:50;;;;;;;3.45;1.90;;;;;21.00;99765.00;;;;2074715;28;20222;-51
2023/12/29 02:37:50;;;;;;;3.95;2.15;;;;;21.00;99717.00;;;;2091775;28;20258;-51
2023/12/29 02:38:51;;;;;;;5.80;2.00;;;;;21.00;99744.00;;;;2077483;28;20267;-51
2023/12/29 02:39:51;;;;;;;6.13;2.10;;;;;21.00;99744.00;;;;2076837;28;20224;-51
2023/12/29 02:40:51;;;;;;;3.20;1.80;;;;;21.00;99730.00;;;;2084373;28;20209;-51
2023/12/29 02:41:52;;;;;;;3.63;1.90;;;;;21.00;99740.00;;;;2071308;28;20245;-50
2023/12/29 02:42:52;;;;;;;4.10;2.20;;;;;21.00;99739.00;;;;2083859;28;20205;-51
2023/12/29 02:43:52;;;;;;;4.67;2.10;;;;;21.00;99742.00;;;;2089655;28;20307;-51
2023/12/29 02:44:53;;;;;;;4.13;2.17;;;;;21.00;99754.00;;;;2085767;28;20423;-51
2023/12/29 02:45:53;;;;;;;5.83;2.37;;;;;21.00;99734.00;;;;2085266;28;20288;-51
2023/12/29 02:46:53;;;;;;;4.90;1.70;;;;;21.00;99740.00;;;;2076192;28;20239;-51
2023/12/29 02:47:54;;;;;;;3.60;2.00;;;;;21.00;99748.00;;;;2092609;28;20216;-50
2023/12/29 02:48:54;;;;;;;4.97;2.20;;;;;21.00;99739.00;;;;2086117;28;20209;-51
2023/12/29 02:49:54;;;;;;;4.83;1.67;;;;;20.90;99729.00;;;;2085948;28;20259;-50
2023/12/29 02:50:55;;;;;;;3.37;1.73;;;;;21.00;99734.00;;;;2082903;28;20205;-50
2023/12/29 02:51:55;;;;;;;3.83;1.57;;;;;21.00;99739.00;;;;2075332;28;20225;-50
2023/12/29 02:52:55;;;;;;;5.77;1.90;;;;;20.90;99745.00;;;;2085090;28;20209;-50
2023/12/29 02:53:56;;;;;;;3.30;2.27;;;;;21.00;99739.00;;;;2085973;28;20432;-51
2023/12/29 02:54:56;;;;;;;3.30;1.93;;;;;21.00;99736.00;;;;2086107;28;20290;-50
2023/12/29 02:55:56;;;;;;;6.90;2.37;;;;;20.90;99717.00;;;;2079917;28;20231;-51
2023/12/29 02:56:57;;;;;;;5.63;1.90;;;;;20.90;99732.00;;;;2078451;28;20216;-51
2023/12/29 02:57:57;;;;;;;5.67;1.97;;;;;21.00;99721.00;;;;2081469;28;20236;-50
2023/12/29 02:58:57;;;;;;;5.53;1.90;;;;;21.00;99725.00;;;;2084243;28;20303;-51
2023/12/29 02:59:58;;;;;;;3.43;1.93;;;;;20.90;99716.00;;;;2084992;28;20278;-51
2023/12/29 03:00:58;;;;;;;5.50;2.00;;;;;20.90;99711.00;;;;2084550;28;20220;-51
2023/12/29 03:01:58;;;;;;;4.00;1.40;;;;;21.00;99707.00;;;;2076379;28;20213;-51
2023/12/29 03:02:59;;;;;;;4.53;1.87;;;;;21.00;99710.00;;;;2086509;28;20236;-51
2023/12/29 03:04:00;;;;;;;3.87;1.77;;;;;21.00;99713.00;;;;2093824;28;20218;-51
2023/12/29 03:05:01;;;;;;;3.58;2.03;;;;;20.90;99706.00;;;;2090339;28;20231;-51
2023/12/29 03:06:01;;;;;;;8.03;2.53;;;;;20.90;99710.00;;;;2086129;28;20225;-51
2023/12/29 03:07:01;;;;;;;4.80;1.73;;;;;20.90;99723.00;;;;2075035;28;20225;-51
2023/12/29 03:08:02;;;;;;;3.80;2.20;;;;;20.90;99714.00;;;;2076826;28;20225;-51
2023/12/29 03:09:02;;;;;;;3.73;1.60;;;;;20.90;99717.00;;;;2085020;28;20221;-51
2023/12/29 03:10:03;;;;;;;4.80;1.70;;;;;20.90;99722.00;;;;2087086;28;20224;-51
2023/12/29 03:11:03;;;;;;;4.23;1.70;;;;;20.90;99712.00;;;;2084417;28;20221;-51
2023/12/29 03:12:04;;;;;;;2.83;1.60;;;;;20.90;99723.00;;;;2074911;28;20212;-51
2023/12/29 03:13:05;;;;;;;3.90;1.57;;;;;20.90;99714.00;;;;2085769;28;20228;-51
2023/12/29 03:14:05;;;;;;;6.87;2.37;;;;;20.90;99718.00;;;;2085680;28;20448;-51
2023/12/29 03:15:05;;;;;;;3.70;1.40;;;;;20.90;99718.00;;;;2083817;28;20723;-51
2023/12/29 03:16:06;;;;;;;5.10;1.83;;;;;20.90;99727.00;;;;2086040;28;20216;-51
2023/12/29 03:17:06;;;;;;;3.07;1.50;;;;;20.90;99716.00;;;;2075170;28;20248;-51
2023/12/29 03:18:06;;;;;;;4.83;1.90;;;;;20.90;99716.00;;;;2085642;28;20209;-51
2023/12/29 03:19:07;;;;;;;3.60;1.50;;;;;20.90;99709.00;;;;2082832;28;20400;-56
2023/12/29 03:20:08;;;;;;;5.50;1.80;;;;;20.90;99717.00;;;;2084509;28;20240;-51
2023/12/29 03:21:08;;;;;;;2.97;1.70;;;;;20.90;99722.00;;;;2086206;28;20239;-51
2023/12/29 03:22:09;;;;;;;3.10;1.50;;;;;20.90;99721.00;;;;2075413;28;21256;-51
2023/12/29 03:23:09;;;;;;;3.67;1.80;;;;;20.90;99725.00;;;;2085834;28;20855;-50
2023/12/29 03:24:09;;;;;;;2.70;1.53;;;;;20.90;99715.00;;;;2084735;28;20251;-51
2023/12/29 03:25:10;;;;;;;5.37;2.00;;;;;20.90;99724.00;;;;2085863;28;20213;-51
2023/12/29 03:26:10;;;;;;;5.53;2.30;;;;;20.90;99726.00;;;;2083464;28;20337;-51
2023/12/29 03:27:10;;;;;;;3.77;1.80;;;;;20.90;99727.00;;;;2075809;28;20323;-51
2023/12/29 03:28:11;;;;;;;4.57;1.80;;;;;20.90;99725.00;;;;2085410;28;20209;-51
2023/12/29 03:29:11;;;;;;;3.20;1.43;;;;;20.90;99725.00;;;;2085342;28;20217;-51
2023/12/29 03:30:11;;;;;;;4.07;1.67;;;;;20.90;99734.00;;;;2092312;28;20739;-51
2023/12/29 03:31:12;;;;;;;2.93;1.20;;;;;20.90;99727.00;;;;2085311;28;20548;-51
2023/12/29 03:32:12;;;;;;;3.70;1.60;;;;;20.90;99730.00;;;;2077128;28;20208;-52
2023/12/29 03:33:13;;;;;;;3.70;2.10;;;;;20.90;99730.00;;;;2085709;28;20215;-51
2023/12/29 03:34:14;;;;;;;5.78;1.63;;;;;20.90;99737.00;;;;2085551;28;20251;-51
2023/12/29 03:35:14;;;;;;;5.53;1.60;;;;;20.80;99723.00;;;;2085903;28;20213;-51
2023/12/29 03:36:14;;;;;;;4.60;1.80;;;;;20.80;99728.00;;;;2085117;28;20294;-51
2023/12/29 03:37:15;;;;;;;5.70;2.10;;;;;20.80;99720.00;;;;2075855;28;20216;-50
2023/12/29 03:38:15;;;;;;;2.03;1.23;;;;;20.80;99718.00;;;;2082078;28;20280;-51
2023/12/29 03:39:15;;;;;;;2.90;1.40;;;;;20.80;99731.00;;;;2085608;28;20205;-51
2023/12/29 03:40:16;;;;;;;3.77;1.60;;;;;20.80;99722.00;;;;2083693;28;20217;-51
2023/12/29 03:41:16;;;;;;;3.87;1.37;;;;;20.80;99708.00;;;;2085731;28;20212;-51
2023/12/29 03:42:16;;;;;;;2.63;1.30;;;;;20.80;99717.00;;;;2075916;28;20220;-51
2023/12/29 03:43:17;;;;;;;2.63;1.10;;;;;20.80;99717.00;;;;2084643;28;20258;-51
2023/12/29 03:44:17;;;;;;;4.10;1.50;;;;;20.80;99709.00;;;;2085444;28;20258;-51
2023/12/29 03:45:17;;;;;;;3.50;1.57;;;;;20.80;99733.00;;;;2083790;28;20216;-51
2023/12/29 03:46:18;;;;;;;3.10;1.50;;;;;20.80;99718.00;;;;2085961;28;20205;-51
2023/12/29 03:47:19;;;;;;;5.50;1.30;;;;;20.80;99706.00;;;;2075473;28;20223;-51
2023/12/29 03:48:19;;;;;;;3.27;1.73;;;;;20.80;99708.00;;;;2085261;28;20537;-51
2023/12/29 03:49:19;;;;;;;3.17;1.33;;;;;20.80;99718.00;;;;2085370;28;20228;-51
2023/12/29 03:50:20;;;;;;;2.87;1.43;;;;;20.80;99711.00;;;;2083084;28;20208;-51
2023/12/29 03:51:20;;;;;;;4.17;1.77;;;;;20.80;99703.00;;;;2085193;28;20208;-50
2023/12/29 03:52:20;;;;;;;4.17;1.33;;;;;20.80;99708.00;;;;2076759;28;20308;-50
2023/12/29 03:53:21;;;;;;;4.97;1.40;;;;;20.80;99693.00;;;;2093821;28;20212;-51
2023/12/29 03:54:21;;;;;;;5.30;1.67;;;;;20.80;99690.00;;;;2091762;28;20219;-51
2023/12/29 03:55:21;;;;;;;4.63;1.60;;;;;20.80;99697.00;;;;2084380;28;20243;-50
2023/12/29 03:56:23;;;;;;;7.20;1.80;;;;;20.80;99698.00;;;;2085737;28;20221;-50
2023/12/29 03:57:23;;;;;;;2.58;1.17;;;;;20.80;99706.00;;;;2076590;28;20217;-50
2023/12/29 03:58:24;;;;;;;5.57;1.63;;;;;20.80;99696.00;;;;2094082;28;20246;-50
2023/12/29 03:59:24;;;;;;;5.77;1.80;;;;;20.80;99696.00;;;;2089085;28;20205;-50
2023/12/29 04:00:24;;;;;;;3.10;1.60;;;;;20.70;99695.00;;;;2083982;28;20213;-50
2023/12/29 04:01:25;;;;;;;2.90;1.20;;;;;20.80;99694.00;;;;2085880;28;20212;-50
2023/12/29 04:02:25;;;;;;;3.03;1.30;;;;;20.80;99700.00;;;;2075319;28;20213;-51
2023/12/29 04:03:25;;;;;;;3.00;1.30;;;;;20.80;99689.00;;;;2087192;28;20205;-51
2023/12/29 04:04:26;;;;;;;3.73;1.57;;;;;20.80;99721.00;;;;2087265;28;20698;-50
2023/12/29 04:05:26;;;;;;;2.60;1.20;;;;;20.80;99704.00;;;;2086572;28;20214;-51
2023/12/29 04:06:26;;;;;;;3.40;1.47;;;;;20.80;99700.00;;;;2087428;28;20326;-51
2023/12/29 04:07:27;;;;;;;3.17;1.23;;;;;20.80;99683.00;;;;2077308;28;20231;-51
2023/12/29 04:08:27;;;;;;;5.03;1.50;;;;;20.80;99695.00;;;;2086418;28;20189;-51
2023/12/29 04:09:28;;;;;;;3.37;1.30;;;;;20.70;99686.00;;;;2087481;28;24246;-51
2023/12/29 04:10:28;;;;;;;2.83;1.23;;;;;20.80;99698.00;;;;2084895;28;20224;-51
2023/12/29 04:11:28;;;;;;;2.53;1.23;;;;;20.70;99661.00;;;;2087135;28;20225;-51
2023/12/29 04:12:29;;;;;;;2.90;1.37;;;;;20.80;99697.00;;;;2076858;28;20411;-50
2023/12/29 04:13:29;;;;;;;3.43;1.30;;;;;20.80;99690.00;;;;2090284;28;20212;-50
2023/12/29 04:14:29;;;;;;;4.63;1.23;;;;;20.80;99701.00;;;;2093720;28;20216;-51
2023/12/29 04:15:30;;;;;;;2.80;1.40;;;;;20.80;99703.00;;;;2089864;28;20366;-50
2023/12/29 04:16:30;;;;;;;3.40;1.30;;;;;20.80;99693.00;;;;2084744;28;20213;-51
2023/12/29 04:17:30;;;;;;;2.57;1.23;;;;;20.80;99700.00;;;;2083672;28;20225;-50
2023/12/29 04:18:31;;;;;;;3.77;1.20;;;;;20.80;99703.00;;;;2086991;28;20251;-51
2023/12/29 04:19:31;;;;;;;3.80;1.20;;;;;20.70;99693.00;;;;2086735;28;20217;-51
2023/12/29 04:20:31;;;;;;;5.70;1.20;;;;;20.70;99695.00;;;;2085732;28;20220;-51
2023/12/29 04:21:31;;;;;;;2.87;1.20;;;;;20.80;99687.00;;;;2076914;28;20259;-51
2023/12/29 04:22:33;;;;;;;2.77;1.03;;;;;20.70;99689.00;;;;2085637;28;20212;-50
2023/12/29 04:23:34;;;;;;;3.55;1.30;;;;;20.80;99689.00;;;;2095243;28;20236;-50
2023/12/29 04:24:34;;;;;;;2.90;1.17;;;;;20.70;99689.00;;;;2087957;28;20228;-50
2023/12/29 04:25:34;;;;;;;3.73;1.37;;;;;20.70;99732.00;;;;2085612;28;20244;-51
2023/12/29 04:26:36;;;;;;;2.97;1.33;;;;;20.70;99689.00;;;;2073457;28;21187;-51
2023/12/29 04:27:36;;;;;;;4.50;1.20;;;;;20.70;99686.00;;;;2082880;28;20652;-50
2023/12/29 04:28:36;;;;;;;3.57;1.30;;;;;20.80;99675.00;;;;2086287;28;20221;-50
2023/12/29 04:29:37;;;;;;;2.70;1.10;;;;;20.80;99685.00;;;;2090988;28;20216;-50
2023/12/29 04:30:37;;;;;;;4.03;1.20;;;;;20.70;99727.00;;;;2089608;28;20235;-51
2023/12/29 04:31:37;;;;;;;2.40;1.00;;;;;20.70;99654.00;;;;2076239;28;20216;-50
2023/12/29 04:32:38;;;;;;;3.13;1.20;;;;;20.70;99686.00;;;;2086866;28;20754;-50
2023/12/29 04:33:38;;;;;;;5.00;1.30;;;;;20.70;99694.00;;;;2086375;28;20708;-51
2023/12/29 04:34:38;;;;;;;2.57;1.30;;;;;20.70;99681.00;;;;2087023;28;20586;-50
2023/12/29 04:35:39;;;;;;;3.70;1.27;;;;;20.70;99684.00;;;;2086139;28;20899;-50
2023/12/29 04:36:39;;;;;;;3.43;1.10;;;;;20.70;99678.00;;;;2071560;28;20225;-56
2023/12/29 04:37:39;;;;;;;3.00;1.37;;;;;20.70;99695.00;;;;2086499;28;20219;-52
2023/12/29 04:38:40;;;;;;;3.57;1.40;;;;;20.70;99683.00;;;;2086448;28;20217;-51
2023/12/29 04:39:40;;;;;;;4.60;1.40;;;;;20.70;99689.00;;;;2087052;28;20572;-51
2023/12/29 04:40:40;;;;;;;3.60;1.13;;;;;20.70;99698.00;;;;2082359;28;20217;-51
2023/12/29 04:41:41;;;;;;;3.73;1.17;;;;;20.70;99691.00;;;;2072556;28;20300;-51
2023/12/29 04:42:41;;;;;;;4.60;1.50;;;;;20.70;99702.00;;;;2090274;28;20212;-51
2023/12/29 04:43:41;;;;;;;2.40;1.13;;;;;20.70;99714.00;;;;2086717;28;20219;-51
2023/12/29 04:44:42;;;;;;;3.50;1.43;;;;;20.70;99704.00;;;;2086913;28;20292;-51
2023/12/29 04:45:42;;;;;;;4.07;1.40;;;;;20.70;99712.00;;;;2085445;28;20204;-51
2023/12/29 04:46:42;;;;;;;2.70;1.03;;;;;20.70;99736.00;;;;2076712;28;20213;-51
2023/12/29 04:47:43;;;;;;;3.60;1.40;;;;;20.70;99712.00;;;;2087001;28;20224;-51
2023/12/29 04:48:43;;;;;;;2.93;1.00;;;;;20.60;99713.00;;;;2091458;28;20635;-50
2023/12/29 04:49:44;;;;;;;2.50;1.10;;;;;20.60;99715.00;;;;2089379;28;20878;-50
2023/12/29 04:50:44;;;;;;;4.13;1.50;;;;;20.60;99728.00;;;;2082070;28;20227;-51
2023/12/29 04:51:44;;;;;;;3.60;1.03;;;;;20.60;99665.00;;;;2076543;28;20450;-51
2023/12/29 04:52:45;;;;;;;3.13;1.00;;;;;20.70;99713.00;;;;2091259;28;20244;-51
2023/12/29 04:53:45;;;;;;;4.17;1.33;;;;;20.70;99726.00;;;;2089876;28;20240;-50
2023/12/29 04:54:45;;;;;;;4.50;1.63;;;;;20.60;99722.00;;;;2085760;28;20217;-50
2023/12/29 04:55:46;;;;;;;3.43;1.40;;;;;20.70;99743.00;;;;2086736;28;20209;-51
2023/12/29 04:56:46;;;;;;;3.27;1.00;;;;;20.70;99721.00;;;;2079882;28;20719;-51
2023/12/29 04:57:46;;;;;;;4.43;1.70;;;;;20.70;99713.00;;;;2086591;28;20209;-51
2023/12/29 04:58:47;;;;;;;3.20;1.37;;;;;20.70;99731.00;;;;2086717;28;20271;-51
2023/12/29 04:59:47;;;;;;;3.53;1.00;;;;;20.70;99720.00;;;;2085853;28;20228;-51
2023/12/29 05:00:47;;;;;;;3.40;1.20;;;;;20.60;99706.00;;;;2085126;28;20213;-50
2023/12/29 05:01:48;;;;;;;2.70;1.17;;;;;20.60;99716.00;;;;2076247;28;20327;-51
2023/12/29 05:02:48;;;;;;;6.23;1.50;;;;;20.60;99716.00;;;;2084059;28;20213;-51
2023/12/29 05:03:48;;;;;;;4.10;1.37;;;;;20.60;99725.00;;;;2087146;28;20215;-50